createdAt,value
2022-07-30T00:02:05.907Z,101153.13
2022-07-30T00:04:33.142Z,101159.41
2022-07-30T00:07:01.068Z,101148.03
2022-07-30T00:09:28.264Z,101155.41
2022-07-30T00:11:55.246Z,101143.78
2022-07-30T00:14:22.220Z,101138.94
2022-07-30T00:16:49.617Z,101158.00
2022-07-30T00:19:16.452Z,101153.16
2022-07-30T00:21:43.818Z,101157.56
2022-07-30T00:24:11.307Z,101153.00
2022-07-30T00:26:38.331Z,101154.63
2022-07-30T00:29:06.475Z,101153.81
2022-07-30T00:31:34.325Z,101156.31
2022-07-30T00:34:01.293Z,101155.00
2022-07-30T00:36:28.285Z,101142.28
2022-07-30T00:38:55.509Z,101146.31
2022-07-30T00:41:22.509Z,101140.88
2022-07-30T00:43:49.822Z,101146.69
2022-07-30T00:46:16.888Z,101161.63
2022-07-30T00:48:44.860Z,101158.41
2022-07-30T00:51:12.076Z,101142.66
2022-07-30T00:53:39.487Z,101148.63
2022-07-30T00:56:07.219Z,101137.81
2022-07-30T00:58:34.868Z,101127.50
2022-07-30T01:01:01.976Z,101140.81
2022-07-30T01:03:29.383Z,101134.06
2022-07-30T01:05:56.414Z,101144.66
2022-07-30T01:08:23.363Z,101136.25
2022-07-30T01:10:51.936Z,101138.75
2022-07-30T01:13:19.186Z,101134.44
2022-07-30T01:15:46.444Z,101135.31
2022-07-30T01:18:15.124Z,101141.47
2022-07-30T01:21:05.923Z,101146.13
2022-07-30T01:23:44.654Z,101147.31
2022-07-30T01:26:17.561Z,101147.31
2022-07-30T01:28:53.115Z,101140.25
2022-07-30T01:31:23.707Z,101141.09
2022-07-30T01:33:51.507Z,101137.03
2022-07-30T01:36:23.063Z,101141.38
2022-07-30T01:38:51.337Z,101133.81
2022-07-30T01:41:19.981Z,101129.47
2022-07-30T01:43:47.473Z,101133.81
2022-07-30T01:46:16.815Z,101136.81
2022-07-30T01:48:47.139Z,101129.53
2022-07-30T01:51:17.213Z,101129.25
2022-07-30T01:53:51.026Z,101126.31
2022-07-30T01:56:20.112Z,101123.28
2022-07-30T01:58:55.971Z,101128.50
2022-07-30T02:01:27.282Z,101125.28
2022-07-30T02:04:02.232Z,101129.63
2022-07-30T02:06:37.764Z,101137.78
2022-07-30T02:09:10.906Z,101137.25
2022-07-30T02:12:05.862Z,101137.56
2022-07-30T02:14:52.538Z,101135.94
2022-07-30T02:17:54.671Z,101131.34
2022-07-30T02:20:28.191Z,101139.50
2022-07-30T02:23:02.303Z,101140.59
2022-07-30T02:25:32.834Z,101142.81
2022-07-30T02:28:09.296Z,101133.53
2022-07-30T02:30:46.560Z,101135.22
2022-07-30T02:33:16.487Z,101129.28
2022-07-30T02:35:43.732Z,101121.19
2022-07-30T02:38:13.673Z,101135.00
2022-07-30T02:40:45.258Z,101130.97
2022-07-30T02:43:16.548Z,101122.28
2022-07-30T02:45:48.063Z,101118.00
2022-07-30T02:48:34.623Z,101127.78
2022-07-30T02:51:05.409Z,101120.72
2022-07-30T02:53:34.199Z,101110.44
2022-07-30T02:56:02.695Z,101115.34
2022-07-30T02:58:30.761Z,101111.03
2022-07-30T03:00:59.105Z,101111.31
2022-07-30T03:03:29.299Z,101112.94
2022-07-30T03:05:58.254Z,101112.69
2022-07-30T03:08:27.989Z,101104.03
2022-07-30T03:10:56.293Z,101108.94
2022-07-30T03:13:25.687Z,101113.88
2022-07-30T03:15:54.233Z,101113.63
2022-07-30T03:18:23.436Z,101113.94
2022-07-30T03:20:55.414Z,101117.75
2022-07-30T03:23:24.351Z,101115.31
2022-07-30T03:26:01.894Z,101120.25
2022-07-30T03:28:33.623Z,101129.22
2022-07-30T03:31:01.584Z,101123.78
2022-07-30T03:33:38.312Z,101117.59
2022-07-30T03:36:08.744Z,101120.31
2022-07-30T03:38:40.007Z,101130.38
2022-07-30T03:41:08.954Z,101128.25
2022-07-30T03:43:36.289Z,101134.19
2022-07-30T03:46:05.802Z,101133.38
2022-07-30T03:48:36.234Z,101134.50
2022-07-30T03:51:06.614Z,101140.44
2022-07-30T03:53:34.223Z,101136.41
2022-07-30T03:56:30.539Z,101139.97
2022-07-30T03:59:16.582Z,101136.69
2022-07-30T04:01:44.382Z,101138.88
2022-07-30T04:04:46.308Z,101134.84
2022-07-30T04:07:13.621Z,101143.22
2022-07-30T04:09:41.270Z,101136.97
2022-07-30T04:12:28.690Z,101140.22
2022-07-30T04:14:57.470Z,101142.41
2022-07-30T04:17:42.045Z,101157.56
2022-07-30T04:20:26.180Z,101156.47
2022-07-30T04:22:53.856Z,101165.94
2022-07-30T04:25:24.518Z,101171.34
2022-07-30T04:28:03.231Z,101172.16
2022-07-30T04:30:34.971Z,101176.16
2022-07-30T04:33:05.655Z,101180.19
2022-07-30T04:35:53.413Z,101184.25
2022-07-30T04:38:26.436Z,101182.28
2022-07-30T04:40:53.792Z,101179.50
2022-07-30T04:43:20.866Z,101173.19
2022-07-30T04:45:48.055Z,101176.66
2022-07-30T04:48:15.324Z,101172.84
2022-07-30T04:50:47.836Z,101179.25
2022-07-30T04:53:19.874Z,101177.63
2022-07-30T04:55:53.260Z,101168.09
2022-07-30T04:58:24.613Z,101166.66
2022-07-30T05:00:55.517Z,101169.31
2022-07-30T05:03:29.682Z,101175.78
2022-07-30T05:05:57.838Z,101180.94
2022-07-30T05:08:29.843Z,101161.59
2022-07-30T05:11:00.336Z,101172.13
2022-07-30T05:13:34.533Z,101177.53
2022-07-30T05:16:06.392Z,101171.78
2022-07-30T05:18:33.329Z,101177.97
2022-07-30T05:21:00.583Z,101174.88
2022-07-30T05:23:49.984Z,101170.75
2022-07-30T05:26:40.978Z,101171.50
2022-07-30T05:29:18.032Z,101158.41
2022-07-30T05:31:59.069Z,101161.56
2022-07-30T05:34:31.507Z,101161.19
2022-07-30T05:36:59.101Z,101160.28
2022-07-30T05:39:26.610Z,101163.16
2022-07-30T05:41:54.943Z,101156.72
2022-07-30T05:44:33.925Z,101152.84
2022-07-30T05:47:01.103Z,101165.22
2022-07-30T05:49:28.701Z,101157.16
2022-07-30T05:52:04.313Z,101164.56
2022-07-30T05:54:33.789Z,101163.88
2022-07-30T05:57:19.876Z,101168.53
2022-07-30T05:59:47.758Z,101175.41
2022-07-30T06:02:43.708Z,101174.19
2022-07-30T06:05:26.269Z,101177.13
2022-07-30T06:07:54.964Z,101170.53
2022-07-30T06:10:26.407Z,101181.03
2022-07-30T06:12:53.809Z,101180.63
2022-07-30T06:15:26.003Z,101169.91
2022-07-30T06:17:58.165Z,101171.72
2022-07-30T06:20:51.652Z,101174.66
2022-07-30T06:23:24.507Z,101169.59
2022-07-30T06:26:07.581Z,101175.75
2022-07-30T06:28:39.236Z,101181.09
2022-07-30T06:31:20.997Z,101176.66
2022-07-30T06:33:48.175Z,101185.44
2022-07-30T06:36:15.301Z,101180.97
2022-07-30T06:38:52.086Z,101189.28
2022-07-30T06:41:26.381Z,101182.59
2022-07-30T06:43:57.855Z,101187.81
2022-07-30T06:46:44.789Z,101186.00
2022-07-30T06:49:12.711Z,101185.25
2022-07-30T06:51:39.725Z,101186.31
2022-07-30T06:54:06.818Z,101190.72
2022-07-30T06:56:37.227Z,101195.34
2022-07-30T06:59:06.987Z,101197.72
2022-07-30T07:01:54.600Z,101196.69
2022-07-30T07:04:23.483Z,101189.72
2022-07-30T07:06:50.657Z,101184.78
2022-07-30T07:09:26.981Z,101194.69
2022-07-30T07:12:17.361Z,101190.53
2022-07-30T07:14:45.187Z,101199.44
2022-07-30T07:17:13.213Z,101191.25
2022-07-30T07:20:04.003Z,101180.81
2022-07-30T07:22:38.204Z,101193.59
2022-07-30T07:25:06.173Z,101183.81
2022-07-30T07:27:33.759Z,101183.03
2022-07-30T07:30:06.209Z,101180.13
2022-07-30T07:32:36.986Z,101178.84
2022-07-30T07:35:06.199Z,101180.16
2022-07-30T07:37:35.534Z,101176.91
2022-07-30T07:40:04.942Z,101175.56
2022-07-30T07:42:36.135Z,101179.25
2022-07-30T07:45:03.549Z,101182.63
2022-07-30T07:47:51.443Z,101181.47
2022-07-30T07:50:40.732Z,101183.97
2022-07-30T07:53:13.105Z,101184.59
2022-07-30T07:55:40.438Z,101182.91
2022-07-30T07:58:07.686Z,101181.66
2022-07-30T08:00:35.076Z,101191.06
2022-07-30T08:03:02.162Z,101188.19
2022-07-30T08:05:58.057Z,101187.66
2022-07-30T08:08:26.060Z,101186.09
2022-07-30T08:11:13.627Z,101177.44
2022-07-30T08:14:18.719Z,101185.50
2022-07-30T08:17:09.595Z,101175.50
2022-07-30T08:20:01.751Z,101184.16
2022-07-30T08:22:29.261Z,101173.88
2022-07-30T08:24:56.501Z,101182.28
2022-07-30T08:27:23.971Z,101169.66
2022-07-30T08:29:51.223Z,101178.38
2022-07-30T08:32:18.459Z,101172.56
2022-07-30T08:34:46.501Z,101171.97
2022-07-30T08:37:14.941Z,101174.13
2022-07-30T08:39:42.419Z,101170.53
2022-07-30T08:42:09.739Z,101168.88
2022-07-30T08:44:37.784Z,101164.81
2022-07-30T08:47:08.004Z,101168.97
2022-07-30T08:50:05.514Z,101167.16
2022-07-30T08:52:37.293Z,101170.78
2022-07-30T08:55:07.365Z,101175.94
2022-07-30T08:57:35.620Z,101161.16
2022-07-30T09:00:07.599Z,101162.69
2022-07-30T09:02:35.033Z,101163.66
2022-07-30T09:05:06.541Z,101165.13
2022-07-30T09:07:35.072Z,101159.91
2022-07-30T09:10:05.681Z,101163.00
2022-07-30T09:12:46.756Z,101153.00
2022-07-30T09:15:20.345Z,101158.06
2022-07-30T09:18:03.222Z,101153.25
2022-07-30T09:20:35.951Z,101162.88
2022-07-30T09:23:10.616Z,101158.41
2022-07-30T09:25:59.186Z,101155.94
2022-07-30T09:28:41.446Z,101160.13
2022-07-30T09:31:14.827Z,101169.50
2022-07-30T09:34:00.652Z,101146.34
2022-07-30T09:36:46.325Z,101152.25
2022-07-30T09:39:40.214Z,101144.16
2022-07-30T09:42:28.973Z,101150.53
2022-07-30T09:45:14.267Z,101152.88
2022-07-30T09:47:48.221Z,101149.09
2022-07-30T09:50:29.873Z,101138.19
2022-07-30T09:53:09.232Z,101143.84
2022-07-30T09:55:41.240Z,101138.38
2022-07-30T09:58:12.690Z,101145.84
2022-07-30T10:00:44.511Z,101145.00
2022-07-30T10:03:44.466Z,101139.84
2022-07-30T10:06:37.822Z,101143.47
2022-07-30T10:09:29.324Z,101142.19
2022-07-30T10:12:04.510Z,101143.84
2022-07-30T10:14:42.686Z,101147.47
2022-07-30T10:17:13.614Z,101138.50
2022-07-30T10:19:47.162Z,101149.03
2022-07-30T10:22:52.550Z,101148.19
2022-07-30T10:25:35.262Z,101151.44
2022-07-30T10:28:24.210Z,101143.88
2022-07-30T10:30:54.279Z,101146.88
2022-07-30T10:33:36.236Z,101142.69
2022-07-30T10:36:05.407Z,101137.28
2022-07-30T10:38:39.245Z,101134.97
2022-07-30T10:41:54.172Z,101131.78
2022-07-30T10:44:49.251Z,101133.81
2022-07-30T10:47:18.971Z,101120.66
2022-07-30T10:50:16.827Z,101132.19
2022-07-30T10:53:05.662Z,101126.63
2022-07-30T10:55:38.718Z,101129.03
2022-07-30T10:58:14.250Z,101126.63
2022-07-30T11:00:52.169Z,101137.38
2022-07-30T11:03:40.587Z,101138.13
2022-07-30T11:06:15.397Z,101126.13
2022-07-30T11:08:45.342Z,101133.59
2022-07-30T11:11:59.132Z,101127.19
2022-07-30T11:14:08.719Z,101137.03
2022-07-30T11:16:35.610Z,101139.28
2022-07-30T11:19:56.393Z,101140.78
2022-07-30T11:22:28.834Z,101132.94
2022-07-30T11:24:57.906Z,101136.31
2022-07-30T11:27:48.489Z,101143.75
2022-07-30T11:30:17.349Z,101148.81
2022-07-30T11:32:48.687Z,101144.06
2022-07-30T11:35:34.525Z,101138.19
2022-07-30T11:38:09.077Z,101141.00
2022-07-30T11:40:50.975Z,101139.91
2022-07-30T11:43:35.914Z,101141.81
2022-07-30T11:46:10.194Z,101142.72
2022-07-30T11:49:05.701Z,101126.56
2022-07-30T11:51:47.255Z,101134.53
2022-07-30T11:54:14.927Z,101127.38
2022-07-30T11:57:04.292Z,101120.63
2022-07-30T11:59:31.942Z,101123.13
2022-07-30T12:02:02.180Z,101128.50
2022-07-30T12:04:30.471Z,101114.97
2022-07-30T12:06:57.593Z,101114.19
2022-07-30T12:09:29.503Z,101116.84
2022-07-30T12:11:57.857Z,101115.97
2022-07-30T12:14:25.200Z,101122.13
2022-07-30T12:16:54.203Z,101127.41
2022-07-30T12:19:21.196Z,101119.56
2022-07-30T12:21:52.582Z,101127.25
2022-07-30T12:24:26.570Z,101110.41
2022-07-30T12:27:07.964Z,101124.78
2022-07-30T12:29:35.795Z,101115.75
2022-07-30T12:32:03.287Z,101129.31
2022-07-30T12:34:30.417Z,101129.41
2022-07-30T12:37:10.182Z,101128.28
2022-07-30T12:39:37.601Z,101128.47
2022-07-30T12:42:04.913Z,101125.16
2022-07-30T12:44:36.061Z,101118.38
2022-07-30T12:47:06.048Z,101123.63
2022-07-30T12:49:36.770Z,101122.50
2022-07-30T12:52:13.254Z,101120.97
2022-07-30T12:54:45.588Z,101123.34
2022-07-30T12:57:12.499Z,101122.50
2022-07-30T12:59:40.139Z,101117.34
2022-07-30T13:02:07.585Z,101115.88
2022-07-30T13:04:38.427Z,101110.06
2022-07-30T13:07:10.670Z,101099.34
2022-07-30T13:09:40.399Z,101113.72
2022-07-30T13:12:09.967Z,101104.63
2022-07-30T13:14:37.084Z,101093.56
2022-07-30T13:17:05.296Z,101111.06
2022-07-30T13:19:32.416Z,101103.22
2022-07-30T13:21:59.437Z,101097.03
2022-07-30T13:24:26.778Z,101109.13
2022-07-30T13:26:53.870Z,101096.47
2022-07-30T13:29:20.799Z,101105.25
2022-07-30T13:31:48.220Z,101106.41
2022-07-30T13:34:15.223Z,101105.78
2022-07-30T13:36:43.031Z,101103.06
2022-07-30T13:39:11.927Z,101110.03
2022-07-30T13:41:41.832Z,101107.38
2022-07-30T13:44:08.898Z,101119.59
2022-07-30T13:46:36.628Z,101108.81
2022-07-30T13:49:04.876Z,101117.09
2022-07-30T13:51:32.164Z,101104.66
2022-07-30T13:53:59.238Z,101099.19
2022-07-30T13:56:27.406Z,101106.44
2022-07-30T13:58:54.902Z,101098.59
2022-07-30T14:01:22.547Z,101102.78
2022-07-30T14:03:50.811Z,101099.28
2022-07-30T14:06:19.752Z,101093.72
2022-07-30T14:08:46.899Z,101094.16
2022-07-30T14:11:14.423Z,101081.84
2022-07-30T14:13:41.626Z,101080.00
2022-07-30T14:16:28.396Z,101080.22
2022-07-30T14:18:57.528Z,101083.53
2022-07-30T14:21:25.078Z,101070.34
2022-07-30T14:23:52.023Z,101070.44
2022-07-30T14:26:19.153Z,101085.19
2022-07-30T14:28:46.425Z,101094.88
2022-07-30T14:31:13.459Z,101077.84
2022-07-30T14:33:40.552Z,101085.25
2022-07-30T14:36:07.564Z,101086.09
2022-07-30T14:38:34.533Z,101072.69
2022-07-30T14:41:01.456Z,101077.94
2022-07-30T14:43:28.413Z,101087.22
2022-07-30T14:45:55.365Z,101088.97
2022-07-30T14:48:22.241Z,101087.19
2022-07-30T14:51:12.049Z,101083.72
2022-07-30T14:53:36.367Z,101085.94
2022-07-30T14:56:03.604Z,101084.03
2022-07-30T14:58:30.711Z,101088.28
2022-07-30T15:00:57.751Z,101083.97
2022-07-30T15:03:25.784Z,101087.56
2022-07-30T15:05:53.630Z,101099.50
2022-07-30T15:08:21.491Z,101086.75
2022-07-30T15:10:48.455Z,101090.72
2022-07-30T15:13:15.520Z,101094.53
2022-07-30T15:15:45.203Z,101095.41
2022-07-30T15:18:13.912Z,101093.41
2022-07-30T15:20:40.943Z,101099.09
2022-07-30T15:23:13.082Z,101101.69
2022-07-30T15:25:42.904Z,101101.59
2022-07-30T15:28:09.989Z,101098.66
2022-07-30T15:30:37.201Z,101102.66
2022-07-30T15:33:04.469Z,101094.94
2022-07-30T15:35:31.711Z,101099.09
2022-07-30T15:37:59.030Z,101101.16
2022-07-30T15:40:26.417Z,101090.03
2022-07-30T15:42:53.607Z,101087.25
2022-07-30T15:45:22.220Z,101084.94
2022-07-30T15:47:49.192Z,101086.16
2022-07-30T15:50:17.386Z,101086.69
2022-07-30T15:52:45.109Z,101090.78
2022-07-30T15:55:12.825Z,101082.88
2022-07-30T15:57:43.214Z,101086.97
2022-07-30T16:00:10.803Z,101094.59
2022-07-30T16:02:43.606Z,101085.50
2022-07-30T16:05:14.381Z,101092.75
2022-07-30T16:07:42.762Z,101083.22
2022-07-30T16:10:10.657Z,101093.56
2022-07-30T16:12:37.998Z,101092.72
2022-07-30T16:15:05.901Z,101092.31
2022-07-30T16:17:32.836Z,101086.75
2022-07-30T16:20:06.089Z,101098.59
2022-07-30T16:22:33.346Z,101091.78
2022-07-30T16:25:00.310Z,101082.19
2022-07-30T16:27:27.518Z,101095.66
2022-07-30T16:29:54.675Z,101088.41
2022-07-30T16:32:21.771Z,101088.72
2022-07-30T16:34:49.798Z,101091.81
2022-07-30T16:37:17.383Z,101103.31
2022-07-30T16:39:44.418Z,101100.47
2022-07-30T16:42:11.589Z,101098.06
2022-07-30T16:44:38.860Z,101101.22
2022-07-30T16:47:08.545Z,101102.31
2022-07-30T16:49:39.149Z,101104.66
2022-07-30T16:52:06.357Z,101102.50
2022-07-30T16:54:33.354Z,101112.28
2022-07-30T16:57:00.709Z,101103.25
2022-07-30T16:59:35.367Z,101118.84
2022-07-30T17:02:03.709Z,101115.28
2022-07-30T17:04:30.925Z,101110.16
2022-07-30T17:06:57.811Z,101122.41
2022-07-30T17:09:25.367Z,101122.84
2022-07-30T17:11:52.586Z,101116.00
2022-07-30T17:14:22.352Z,101128.25
2022-07-30T17:16:50.261Z,101125.00
2022-07-30T17:19:17.602Z,101124.09
2022-07-30T17:21:44.688Z,101136.59
2022-07-30T17:24:13.429Z,101126.97
2022-07-30T17:26:43.414Z,101129.59
2022-07-30T17:29:15.101Z,101133.78
2022-07-30T17:31:46.205Z,101136.75
2022-07-30T17:34:19.973Z,101140.50
2022-07-30T17:36:52.597Z,101137.50
2022-07-30T17:40:18.833Z,101140.13
2022-07-30T17:42:10.988Z,101140.69
2022-07-30T17:44:40.344Z,101140.97
2022-07-30T17:47:12.385Z,101149.19
2022-07-30T17:49:42.040Z,101147.50
2022-07-30T17:52:08.994Z,101139.56
2022-07-30T17:54:36.067Z,101146.56
2022-07-30T17:57:03.576Z,101158.75
2022-07-30T17:59:30.857Z,101153.94
2022-07-30T18:01:59.857Z,101163.34
2022-07-30T18:04:30.568Z,101152.19
2022-07-30T18:06:57.520Z,101163.94
2022-07-30T18:09:24.701Z,101165.88
2022-07-30T18:11:51.793Z,101159.19
2022-07-30T18:14:18.965Z,101164.31
2022-07-30T18:16:45.878Z,101166.53
2022-07-30T18:19:22.699Z,101158.25
2022-07-30T18:21:54.695Z,101153.38
2022-07-30T18:24:24.621Z,101157.66
2022-07-30T18:26:52.941Z,101170.16
2022-07-30T18:29:21.014Z,101163.13
2022-07-30T18:31:48.407Z,101169.69
2022-07-30T18:34:15.646Z,101167.31
2022-07-30T18:36:42.763Z,101160.13
2022-07-30T18:39:09.729Z,101178.09
2022-07-30T18:41:36.647Z,101174.94
2022-07-30T18:44:04.110Z,101183.84
2022-07-30T18:46:30.979Z,101186.13
2022-07-30T18:49:01.064Z,101180.06
2022-07-30T18:51:39.397Z,101184.59
2022-07-30T18:54:06.392Z,101187.34
2022-07-30T18:56:33.499Z,101193.50
2022-07-30T18:59:00.548Z,101198.06
2022-07-30T19:01:29.379Z,101197.22
2022-07-30T19:03:56.535Z,101201.44
2022-07-30T19:06:24.331Z,101212.69
2022-07-30T19:08:53.564Z,101207.53
2022-07-30T19:11:20.515Z,101216.38
2022-07-30T19:13:47.523Z,101224.13
2022-07-30T19:16:14.743Z,101218.28
2022-07-30T19:18:41.818Z,101233.38
2022-07-30T19:21:13.721Z,101229.59
2022-07-30T19:23:41.126Z,101229.72
2022-07-30T19:26:08.491Z,101229.69
2022-07-30T19:28:36.566Z,101231.25
2022-07-30T19:31:03.623Z,101233.66
2022-07-30T19:33:31.098Z,101254.06
2022-07-30T19:35:58.053Z,101246.91
2022-07-30T19:38:25.124Z,101244.31
2022-07-30T19:40:52.371Z,101249.41
2022-07-30T19:43:23.867Z,101247.94
2022-07-30T19:45:52.245Z,101252.41
2022-07-30T19:48:28.638Z,101248.66
2022-07-30T19:50:58.702Z,101246.66
2022-07-30T19:53:26.511Z,101254.69
2022-07-30T19:55:55.195Z,101252.88
2022-07-30T19:58:22.302Z,101254.63
2022-07-30T20:00:52.769Z,101252.94
2022-07-30T20:03:26.013Z,101258.22
2022-07-30T20:05:59.655Z,101258.81
2022-07-30T20:08:28.462Z,101261.34
2022-07-30T20:10:57.942Z,101259.03
2022-07-30T20:13:44.006Z,101266.25
2022-07-30T20:16:16.235Z,101262.63
2022-07-30T20:18:46.180Z,101260.31
2022-07-30T20:21:15.987Z,101260.75
2022-07-30T20:23:45.036Z,101257.63
2022-07-30T20:26:14.840Z,101261.84
2022-07-30T20:28:45.844Z,101259.53
2022-07-30T20:31:14.084Z,101267.91
2022-07-30T20:33:42.423Z,101263.16
2022-07-30T20:36:11.686Z,101265.50
2022-07-30T20:38:44.292Z,101265.69
2022-07-30T20:41:11.635Z,101274.00
2022-07-30T20:46:31.847Z,101274.59
2022-07-30T20:48:59.259Z,101263.25
2022-07-30T20:51:33.658Z,101272.44
2022-07-30T20:54:01.649Z,101267.63
2022-07-30T20:56:28.951Z,101262.06
2022-07-30T20:58:57.026Z,101271.13
2022-07-30T21:01:23.981Z,101262.84
2022-07-30T21:03:51.114Z,101258.34
2022-07-30T21:06:19.620Z,101257.63
2022-07-30T21:08:46.552Z,101252.88
2022-07-30T21:11:14.497Z,101263.03
2022-07-30T21:13:41.965Z,101262.09
2022-07-30T21:16:15.532Z,101253.19
2022-07-30T21:18:49.871Z,101259.81
2022-07-30T21:21:28.569Z,101257.75
2022-07-30T21:24:01.574Z,101251.84
2022-07-30T21:26:31.195Z,101262.00
2022-07-30T21:29:00.698Z,101258.00
2022-07-30T21:31:34.929Z,101259.72
2022-07-30T21:34:15.080Z,101247.41
2022-07-30T21:36:43.380Z,101252.63
2022-07-30T21:39:13.945Z,101252.13
2022-07-30T21:41:41.315Z,101250.03
2022-07-30T21:46:56.527Z,101248.78
2022-07-30T21:49:23.566Z,101248.31
2022-07-30T21:51:50.995Z,101254.09
2022-07-30T21:54:29.334Z,101261.44
2022-07-30T21:56:58.870Z,101268.84
2022-07-30T21:59:27.665Z,101253.69
2022-07-30T22:01:55.741Z,101261.59
2022-07-30T22:04:23.284Z,101270.63
2022-07-30T22:06:51.407Z,101261.13
2022-07-30T22:09:33.357Z,101263.91
2022-07-30T22:12:09.038Z,101259.63
2022-07-30T22:14:37.938Z,101255.06
2022-07-30T22:17:05.746Z,101258.94
2022-07-30T22:19:46.544Z,101264.94
2022-07-30T22:22:26.899Z,101257.13
2022-07-30T22:24:57.336Z,101260.41
2022-07-30T22:27:27.157Z,101262.38
2022-07-30T22:29:55.719Z,101262.91
2022-07-30T22:32:24.486Z,101263.47
2022-07-30T22:34:52.128Z,101257.28
2022-07-30T22:37:21.635Z,101264.38
2022-07-30T22:39:52.068Z,101261.44
2022-07-30T22:42:24.524Z,101259.56
2022-07-30T22:44:54.886Z,101256.09
2022-07-30T22:47:54.137Z,101268.63
2022-07-30T22:50:11.741Z,101259.66
2022-07-30T22:52:40.325Z,101264.06
2022-07-30T22:58:05.396Z,101256.25
2022-07-30T23:00:32.742Z,101260.34
2022-07-30T23:02:59.862Z,101250.63
2022-07-30T23:05:27.574Z,101250.38
2022-07-30T23:07:54.821Z,101257.19
2022-07-30T23:10:23.010Z,101250.97
2022-07-30T23:12:18.422Z,101276.31
2022-07-30T23:12:27.669Z,101256.06
2022-07-30T23:12:33.728Z,101261.38
2022-07-30T23:12:53.103Z,101250.75
2022-07-30T23:15:20.991Z,101255.91
2022-07-30T23:17:48.540Z,101249.97
2022-07-30T23:20:20.323Z,101250.78
2022-07-30T23:22:48.374Z,101246.47
2022-07-30T23:25:15.697Z,101236.75
2022-07-30T23:27:43.197Z,101242.97
2022-07-30T23:30:11.725Z,101244.09
2022-07-30T23:32:39.978Z,101246.28
2022-07-30T23:35:09.115Z,101244.13
2022-07-30T23:37:48.732Z,101240.06
2022-07-30T23:40:19.580Z,101240.91
2022-07-30T23:42:47.643Z,101239.56
2022-07-30T23:45:14.788Z,101236.56
2022-07-30T23:48:00.965Z,101231.72
2022-07-30T23:50:33.676Z,101241.47
2022-07-30T23:53:01.870Z,101231.72
2022-07-30T23:55:30.651Z,101230.38
2022-07-30T23:57:58.512Z,101241.50
